Time;durP1;ratioP1;P1;durP2;ratioP2;P2;SDS_P1;SDS_P2;PMS_P1;PMS_P2;Temp;Humidity;BMP_temperature;BMP_pressure;BME280_temperature;BME280_humidity;BME280_pressure;Samples;Min_cycle;Max_cycle;Signal;HPM_P1;HPM_P2
2022/06/10 00:02:06;;;;;;;3.87;2.70;;;15.90;99.90;;;15.80;67.79;101311.34;4995461;28;20415;-68
2022/06/10 00:04:35;;;;;;;2.73;2.50;;;15.80;99.90;;;15.74;68.06;101318.53;4991208;28;20431;-70
2022/06/10 00:07:05;;;;;;;3.20;2.70;;;15.70;99.90;;;15.78;67.57;101311.56;4994538;28;20506;-69
2022/06/10 00:09:34;;;;;;;2.93;2.30;;;15.70;99.90;;;15.80;67.42;101323.09;4996082;28;20953;-70
2022/06/10 00:12:06;;;;;;;2.93;2.10;;;15.70;99.90;;;15.73;67.41;101325.09;4994204;28;20448;-70
2022/06/10 00:14:35;;;;;;;7.63;2.07;;;15.70;99.90;;;15.74;67.38;101323.16;4995384;28;20417;-69
2022/06/10 00:17:05;;;;;;;4.57;2.60;;;15.60;99.90;;;15.60;67.61;101330.66;4990467;28;20425;-68
2022/06/10 00:19:34;;;;;;;4.20;2.00;;;15.60;99.90;;;15.56;67.71;101329.44;4997577;28;20428;-70
2022/06/10 00:22:07;;;;;;;4.13;2.30;;;15.50;99.90;;;15.57;67.54;101331.09;4984980;28;20409;-69
2022/06/10 00:24:36;;;;;;;2.93;2.30;;;15.50;99.90;;;15.45;67.84;101338.31;4986614;28;20534;-68
2022/06/10 00:27:06;;;;;;;2.60;2.30;;;15.50;99.90;;;15.38;68.06;101343.00;4987587;28;20424;-71
2022/06/10 00:29:35;;;;;;;4.97;2.10;;;15.40;99.90;;;15.36;68.24;101345.09;4998009;28;20436;-69
2022/06/10 00:32:06;;;;;;;2.70;2.50;;;15.30;99.90;;;15.24;68.56;101345.00;4996151;28;20701;-70
2022/06/10 00:34:35;;;;;;;3.60;2.73;;;15.30;99.90;;;15.18;68.66;101341.28;4991617;28;20425;-71
2022/06/10 00:37:06;;;;;;;2.80;2.50;;;15.20;99.90;;;15.16;68.99;101339.81;4991917;28;20468;-70
2022/06/10 00:39:35;;;;;;;3.50;2.47;;;15.20;99.90;;;15.16;68.71;101354.28;4989133;28;20450;-71
2022/06/10 00:42:08;;;;;;;3.00;2.17;;;15.10;99.90;;;15.18;68.62;101354.06;4975597;28;20481;-69
2022/06/10 00:44:44;;;;;;;6.00;3.10;;;15.10;99.90;;;15.13;68.68;101357.47;4990668;28;20725;-70
2022/06/10 00:47:20;;;;;;;3.63;3.33;;;15.10;99.90;;;15.04;69.15;101356.06;5048824;22;20497;-72
2022/06/10 00:49:58;;;;;;;3.57;2.83;;;15.00;99.90;;;15.02;69.11;101355.44;5038471;28;20410;-74
2022/06/10 00:52:34;;;;;;;2.27;2.03;;;15.00;99.90;;;15.05;69.07;101360.47;5039553;28;20466;-73
2022/06/10 00:55:08;;;;;;;3.10;2.80;;;15.00;99.90;;;15.04;69.04;101372.41;5038837;28;20379;-73
2022/06/10 00:57:44;;;;;;;2.07;1.97;;;15.00;99.90;;;14.94;69.52;101369.34;5018308;28;20396;-74
2022/06/10 01:00:18;;;;;;;3.90;2.93;;;14.90;99.90;;;15.02;69.29;101371.78;5014251;28;20417;-72
2022/06/10 01:02:47;;;;;;;3.17;2.63;;;14.90;99.90;;;14.96;69.63;101382.75;5021545;28;20420;-72
2022/06/10 01:05:22;;;;;;;3.27;2.97;;;14.90;99.90;;;14.87;69.72;101387.59;4993659;28;20424;-73
2022/06/10 01:07:57;;;;;;;3.43;3.10;;;14.90;99.90;;;14.77;69.91;101387.22;5015275;28;20916;-72
2022/06/10 01:10:30;;;;;;;3.40;2.80;;;14.80;99.90;;;14.67;70.46;101386.84;5030964;28;20391;-72
2022/06/10 01:13:28;;;;;;;3.37;2.87;;;14.70;99.90;;;14.66;70.73;101394.22;5030734;28;20471;-73
2022/06/10 01:16:21;;;;;;;2.60;2.40;;;14.70;99.90;;;14.64;70.65;101387.31;5011353;28;20862;-72
2022/06/10 01:19:05;;;;;;;3.30;3.00;;;14.70;99.90;;;14.56;71.03;101387.56;5012081;28;20428;-73
2022/06/10 01:22:26;;;;;;;4.80;3.63;;;14.60;99.90;;;14.80;70.45;101395.00;5013320;28;20468;-72
2022/06/10 01:25:51;;;;;;;3.97;2.40;;;14.60;99.90;;;14.72;70.58;101395.22;5006472;28;20538;-73
2022/06/10 01:28:50;;;;;;;3.30;2.90;;;14.70;99.90;;;14.55;71.30;101407.69;4986991;28;20946;-72
2022/06/10 01:31:28;;;;;;;5.77;3.40;;;14.60;99.90;;;14.56;71.41;101409.34;5023813;28;20459;-75
2022/06/10 01:34:28;;;;;;;4.77;2.60;;;14.50;99.90;;;14.51;71.47;101406.44;5014677;28;20431;-73
2022/06/10 01:37:08;;;;;;;2.30;2.10;;;14.50;99.90;;;14.52;71.34;101405.41;5010899;28;20856;-72
2022/06/10 01:39:49;;;;;;;7.07;3.03;;;14.50;99.90;;;14.52;71.51;101408.97;5010756;28;20929;-73
2022/06/10 01:42:30;;;;;;;4.10;3.20;;;14.50;99.90;;;14.38;72.05;101403.78;5011530;28;20451;-73
2022/06/10 01:45:12;;;;;;;3.50;3.10;;;14.40;99.90;;;14.35;72.29;101407.72;5011699;28;20411;-73
2022/06/10 01:47:52;;;;;;;4.90;3.30;;;14.40;99.90;;;14.37;72.39;101407.53;5011142;28;20450;-73
2022/06/10 01:50:33;;;;;;;3.63;3.20;;;14.30;99.90;;;14.35;72.36;101415.88;5026992;28;20452;-72
2022/06/10 01:53:13;;;;;;;3.80;3.37;;;14.40;99.90;;;14.27;72.97;101416.97;5030916;28;20517;-73
2022/06/10 01:55:49;;;;;;;4.73;3.13;;;14.30;99.90;;;14.26;73.07;101409.84;5014281;28;20407;-72
2022/06/10 01:58:27;;;;;;;3.97;2.90;;;14.30;99.90;;;14.18;73.47;101417.41;5012931;28;20388;-72
2022/06/10 02:01:05;;;;;;;6.43;3.80;;;14.20;99.90;;;14.27;73.07;101422.41;5012280;28;20415;-74
2022/06/10 02:03:42;;;;;;;4.33;3.63;;;14.20;99.90;;;14.20;73.36;101427.03;5013256;28;20413;-72
2022/06/10 02:06:18;;;;;;;5.37;3.80;;;14.20;99.90;;;14.15;73.66;101423.25;5026322;28;20470;-73
2022/06/10 02:08:54;;;;;;;7.47;4.53;;;14.20;99.90;;;14.17;73.87;101432.06;5030683;28;20387;-73
2022/06/10 02:11:26;;;;;;;6.40;4.37;;;14.10;99.90;;;14.24;73.67;101428.25;5030180;28;20454;-72
2022/06/10 02:14:03;;;;;;;4.10;3.60;;;14.20;99.90;;;14.21;73.80;101428.69;5010146;28;20860;-72
2022/06/10 02:16:39;;;;;;;4.47;4.07;;;14.20;99.90;;;14.12;74.21;101435.41;5025330;28;20518;-74
2022/06/10 02:19:22;;;;;;;5.70;3.90;;;14.10;99.90;;;14.04;74.19;101443.78;5029654;28;20474;-74
2022/06/10 02:21:58;;;;;;;9.27;3.90;;;14.10;99.90;;;13.97;74.70;101437.53;5032353;28;20434;-72
2022/06/10 02:24:35;;;;;;;6.10;4.30;;;14.00;99.90;;;13.98;74.78;101447.38;5029253;28;20470;-72
2022/06/10 02:27:11;;;;;;;6.80;4.37;;;14.00;99.90;;;13.84;75.45;101443.84;5014490;28;20419;-73
2022/06/10 02:29:51;;;;;;;7.67;4.97;;;13.90;99.90;;;13.74;75.82;101442.59;5018702;28;20428;-72
2022/06/10 02:32:25;;;;;;;4.30;3.60;;;13.90;99.90;;;13.73;76.30;101451.78;5028223;28;20548;-73
2022/06/10 02:34:57;;;;;;;5.27;3.80;;;13.80;99.90;;;13.66;76.63;101453.66;5019897;28;20525;-71
2022/06/10 02:37:36;;;;;;;8.57;4.40;;;13.70;99.90;;;13.73;76.32;101451.78;5029746;28;20387;-72
2022/06/10 02:40:20;;;;;;;5.67;4.17;;;13.70;99.90;;;13.69;76.46;101456.81;5029648;28;20769;-72
2022/06/10 02:43:03;;;;;;;6.70;3.20;;;13.70;99.90;;;13.65;76.77;101454.72;5028594;28;20747;-72
2022/06/10 02:45:42;;;;;;;5.13;3.67;;;13.70;99.90;;;13.60;76.97;101458.06;5015144;28;20402;-72
2022/06/10 02:48:22;;;;;;;3.50;3.07;;;13.60;99.90;;;13.49;77.34;101462.22;5012177;28;20894;-72
2022/06/10 02:50:52;;;;;;;3.77;3.17;;;13.60;99.90;;;13.64;77.06;101466.63;5009905;28;20478;-73
2022/06/10 02:53:21;;;;;;;6.77;3.80;;;13.60;99.90;;;13.61;76.93;101473.31;5028725;28;20533;-73
2022/06/10 02:55:50;;;;;;;3.83;3.30;;;13.60;99.90;;;13.59;77.21;101477.31;5009454;28;20407;-73
2022/06/10 03:01:20;;;;;;;4.33;3.77;;;13.60;99.90;;;13.49;77.55;101486.72;5026390;28;20841;-72
2022/06/10 03:04:23;;;;;;;4.30;3.23;;;13.50;99.90;;;13.41;77.82;101486.88;5032231;28;20874;-72
2022/06/10 03:07:22;;;;;;;5.17;3.40;;;13.50;99.90;;;13.37;78.13;101501.09;5029511;28;20436;-73
2022/06/10 03:10:08;;;;;;;4.10;3.27;;;13.40;99.90;;;13.34;78.65;101494.19;5029416;28;20413;-73
2022/06/10 03:12:44;;;;;;;3.53;3.20;;;13.40;99.90;;;13.42;78.34;101496.72;5026655;28;20953;-73
2022/06/10 03:15:48;;;;;;;4.57;4.10;;;13.40;99.90;;;13.40;78.54;101497.97;5012837;28;20562;-76
2022/06/10 03:18:30;;;;;;;4.73;3.73;;;13.40;99.90;;;13.41;78.55;101502.34;5009438;28;20444;-72
2022/06/10 03:21:11;;;;;;;3.90;3.40;;;13.40;99.90;;;13.60;77.72;101508.91;5009205;28;20862;-74
2022/06/10 03:24:00;;;;;;;6.20;3.47;;;13.50;99.90;;;13.73;77.27;101517.06;5009687;28;20824;-75
2022/06/10 03:26:42;;;;;;;3.33;3.03;;;13.60;99.90;;;13.69;77.48;101516.66;5009402;28;20441;-73
2022/06/10 03:29:23;;;;;;;10.13;3.50;;;13.60;99.90;;;13.71;77.67;101519.13;5012594;28;20460;-74
2022/06/10 03:31:59;;;;;;;6.17;3.23;;;13.60;99.90;;;13.67;77.78;101532.31;5009243;28;20539;-73
2022/06/10 03:34:36;;;;;;;4.33;3.50;;;13.60;99.90;;;13.89;77.11;101528.34;5017189;28;20534;-74
2022/06/10 03:37:09;;;;;;;3.67;3.37;;;13.60;99.90;;;14.30;75.49;101535.47;5027846;28;20518;-74
2022/06/10 03:39:41;;;;;;;4.00;3.60;;;13.90;99.90;;;15.27;72.83;101534.59;5032852;28;20434;-72
2022/06/10 03:42:17;;;;;;;5.30;3.63;;;14.20;99.90;;;16.54;67.55;101540.56;5032791;28;20991;-75
2022/06/10 03:44:52;;;;;;;3.40;2.90;;;15.00;99.90;;;17.98;62.62;101543.34;5032938;28;20383;-73
2022/06/10 03:47:27;;;;;;;5.30;3.57;;;15.90;99.90;;;19.38;59.06;101543.22;5028648;28;20444;-73
2022/06/10 03:50:02;;;;;;;3.87;3.20;;;16.80;99.90;;;20.19;56.01;101548.28;5013059;28;20441;-73
2022/06/10 03:52:38;;;;;;;3.53;3.23;;;17.40;97.30;;;20.84;54.23;101553.16;5022163;28;20547;-74
2022/06/10 03:55:11;;;;;;;5.23;3.53;;;18.10;90.20;;;20.85;53.64;101560.34;5025623;28;20514;-73
2022/06/10 03:57:39;;;;;;;6.03;2.77;;;18.30;77.10;;;20.69;53.29;101556.53;5012740;28;20522;-72
2022/06/10 04:00:14;;;;;;;3.30;3.00;;;18.70;61.40;;;21.18;52.34;101554.75;5013070;28;20429;-73
2022/06/10 04:02:44;;;;;;;4.60;2.20;;;19.00;52.80;;;21.31;52.41;101563.69;5021920;28;20422;-72
2022/06/10 04:05:13;;;;;;;3.50;2.67;;;19.10;50.70;;;21.72;51.17;101563.06;5016666;28;20399;-74
2022/06/10 04:07:43;;;;;;;3.33;3.00;;;19.50;45.40;;;21.98;50.26;101562.22;5030776;28;20457;-74
2022/06/10 04:10:18;;;;;;;3.60;3.17;;;19.90;38.80;;;21.60;50.56;101568.72;5032251;28;20438;-73
2022/06/10 04:12:47;;;;;;;4.30;2.87;;;20.00;33.30;;;21.20;51.30;101571.81;5028737;28;20514;-71
2022/06/10 04:15:17;;;;;;;4.23;3.30;;;20.00;32.30;;;21.07;52.14;101574.94;5015966;28;20512;-74
2022/06/10 04:17:48;;;;;;;3.63;3.20;;;19.80;33.70;;;22.18;49.67;101574.53;5014048;28;20776;-72
2022/06/10 04:20:20;;;;;;;4.20;2.90;;;20.10;32.00;;;23.12;47.50;101580.16;5032700;28;20482;-74
2022/06/10 04:22:49;;;;;;;4.50;3.87;;;20.40;28.80;;;22.37;48.53;101579.38;5033112;28;20455;-72
2022/06/10 04:25:20;;;;;;;7.00;4.03;;;20.70;27.30;;;23.36;47.06;101586.88;5032929;28;20518;-72
2022/06/10 04:27:50;;;;;;;4.10;3.70;;;20.40;26.80;;;22.89;47.86;101576.75;5032505;28;20412;-73
2022/06/10 04:30:29;;;;;;;5.23;3.77;;;20.70;26.00;;;21.90;49.44;101579.22;5032058;28;20901;-71
2022/06/10 04:32:59;;;;;;;7.60;3.73;;;20.50;25.20;;;22.52;48.32;101573.13;5032173;28;20418;-73
2022/06/10 04:35:29;;;;;;;6.23;4.23;;;20.60;26.00;;;21.38;50.34;101576.19;5032209;28;20573;-73
2022/06/10 04:37:59;;;;;;;6.50;4.07;;;20.30;25.50;;;22.12;49.43;101586.63;5013938;28;20407;-73
2022/06/10 04:40:38;;;;;;;5.07;3.60;;;20.50;25.90;;;23.02;47.65;101586.47;5012743;28;20459;-74
2022/06/10 04:43:08;;;;;;;4.87;3.80;;;20.70;24.90;;;22.79;47.56;101587.72;5012863;28;20931;-73
2022/06/10 04:45:43;;;;;;;9.63;4.10;;;20.80;23.30;;;21.92;49.22;101601.00;5011281;28;20463;-75
2022/06/10 04:48:13;;;;;;;5.43;4.83;;;20.60;23.90;;;20.49;52.93;101594.72;5027649;28;20468;-73
2022/06/10 04:50:43;;;;;;;6.47;5.13;;;19.80;25.80;;;21.47;51.10;101595.81;5011162;28;20416;-75
2022/06/10 04:53:12;;;;;;;7.33;4.60;;;19.90;27.50;;;21.92;49.50;101596.34;5012251;28;20421;-74
2022/06/10 04:55:43;;;;;;;10.00;4.70;;;20.30;26.00;;;20.81;51.68;101597.69;5012353;28;20484;-73
2022/06/10 04:58:13;;;;;;;8.37;5.37;;;20.10;25.30;;;22.22;49.28;101603.25;5013586;28;20412;-76
2022/06/10 05:00:47;;;;;;;7.57;6.10;;;20.20;25.60;;;22.50;48.55;101602.94;5018879;28;20525;-74
2022/06/10 05:03:17;;;;;;;6.00;3.70;;;20.40;24.80;;;21.92;49.05;101601.84;5032520;28;20462;-74
2022/06/10 05:05:46;;;;;;;7.00;4.60;;;20.60;23.20;;;21.58;50.56;101608.63;5026560;28;20831;-74
2022/06/10 05:08:19;;;;;;;6.60;4.17;;;20.30;24.40;;;23.20;47.06;101618.28;5012858;28;20437;-74
2022/06/10 05:10:50;;;;;;;11.67;4.30;;;20.90;23.80;;;24.51;44.62;101618.63;5013277;28;20401;-72
2022/06/10 05:13:20;;;;;;;4.63;2.90;;;21.10;22.20;;;24.63;43.49;101621.13;5030861;28;20968;-73
2022/06/10 05:15:50;;;;;;;6.20;3.93;;;21.40;19.50;;;23.62;45.51;101627.34;5031930;28;20982;-73
2022/06/10 05:18:23;;;;;;;3.90;3.40;;;21.50;18.60;;;23.87;44.97;101625.75;5027181;28;20443;-75
2022/06/10 05:20:52;;;;;;;4.37;3.40;;;21.50;18.40;;;23.38;45.20;101623.38;5032364;28;20395;-75
2022/06/10 05:23:25;;;;;;;4.60;2.90;;;21.80;16.40;;;22.66;46.76;101632.28;5032176;28;20428;-72
2022/06/10 05:25:56;;;;;;;6.80;3.10;;;21.40;16.40;;;23.03;46.22;101620.41;5032158;28;20412;-74
2022/06/10 05:28:26;;;;;;;5.13;3.43;;;21.20;17.20;;;23.16;45.68;101626.28;5022167;28;20530;-74
2022/06/10 05:30:55;;;;;;;5.90;3.67;;;21.20;16.90;;;22.69;47.16;101629.00;5012223;28;20912;-74
2022/06/10 05:33:24;;;;;;;4.23;2.93;;;21.10;17.20;;;23.21;45.69;101628.22;5012391;28;20499;-73
2022/06/10 05:36:13;;;;;;;4.00;3.60;;;21.30;16.50;;;20.71;51.16;101638.78;5011743;28;21003;-74
2022/06/10 05:38:42;;;;;;;6.30;3.10;;;20.30;19.40;;;19.24;54.61;101641.47;5012344;28;20445;-72
2022/06/10 05:43:58;;;;;;;4.83;2.70;;;18.70;27.50;;;17.37;59.50;101640.22;5012533;28;20435;-73
2022/06/10 05:46:28;;;;;;;6.60;3.17;;;17.70;33.50;;;17.29;60.70;101653.34;5012450;28;20412;-73
2022/06/10 05:48:56;;;;;;;5.20;2.93;;;17.40;46.70;;;17.09;61.40;101650.00;5012588;28;20407;-73
2022/06/10 05:51:26;;;;;;;5.83;4.70;;;17.10;57.70;;;17.41;61.24;101651.53;5012071;28;20441;-74
2022/06/10 05:53:55;;;;;;;8.80;3.80;;;17.10;72.30;;;17.80;60.13;101653.78;5011824;28;20399;-72
2022/06/10 05:56:25;;;;;;;3.97;2.90;;;17.40;74.60;;;17.67;60.26;101651.19;5011748;28;20828;-73
2022/06/10 05:58:54;;;;;;;3.90;2.77;;;17.40;68.30;;;17.30;60.67;101647.66;5011805;28;20919;-74
2022/06/10 06:01:23;;;;;;;4.90;2.10;;;17.30;67.00;;;17.11;60.48;101651.44;5011915;28;20452;-73
2022/06/10 06:03:53;;;;;;;3.87;2.83;;;17.10;65.10;;;16.74;61.35;101658.75;5022779;28;20443;-74
2022/06/10 06:06:22;;;;;;;6.83;2.47;;;16.80;70.00;;;16.76;62.20;101653.88;5031618;28;20433;-74
2022/06/10 06:08:51;;;;;;;3.03;2.30;;;16.70;81.60;;;16.53;61.85;101646.28;5031710;28;20415;-74
2022/06/10 06:11:20;;;;;;;4.77;2.50;;;16.60;77.50;;;16.62;61.51;101646.88;5046625;28;20501;-73
2022/06/10 06:13:50;;;;;;;2.83;1.60;;;16.60;78.30;;;16.66;61.67;101658.19;5031451;28;20479;-72
2022/06/10 06:16:21;;;;;;;4.10;1.70;;;16.50;83.20;;;16.71;61.48;101650.16;5032826;28;20445;-75
2022/06/10 06:18:51;;;;;;;2.73;2.00;;;16.60;81.00;;;16.84;61.42;101655.53;5033761;28;20518;-73
2022/06/10 06:21:20;;;;;;;4.07;2.17;;;16.70;83.40;;;17.12;60.92;101649.53;5035544;28;20448;-74
2022/06/10 06:23:50;;;;;;;3.30;1.90;;;16.90;81.80;;;17.30;60.59;101653.13;5035890;28;20484;-72
2022/06/10 06:26:19;;;;;;;2.87;1.60;;;17.10;79.10;;;17.50;59.23;101652.88;5035585;28;20427;-72
2022/06/10 06:28:49;;;;;;;2.57;1.60;;;17.30;67.70;;;17.60;58.83;101655.94;5047978;28;20444;-72
2022/06/10 06:31:18;;;;;;;4.70;1.33;;;17.40;60.50;;;17.59;58.68;101659.75;5028601;28;20831;-74
2022/06/10 06:33:47;;;;;;;3.73;2.00;;;17.50;57.50;;;17.57;58.79;101653.63;5027567;28;20415;-76
2022/06/10 06:36:21;;;;;;;3.93;2.10;;;17.50;57.50;;;17.63;58.59;101644.53;5022849;28;20446;-75
2022/06/10 06:38:50;;;;;;;2.60;2.27;;;17.50;55.80;;;17.75;59.04;101648.16;5011523;28;20458;-74
2022/06/10 06:41:21;;;;;;;2.60;2.00;;;17.60;58.90;;;17.92;58.09;101656.56;5013462;28;20544;-74
2022/06/10 06:43:51;;;;;;;2.20;1.93;;;17.80;54.80;;;18.13;57.75;101657.94;5022090;28;20411;-74
2022/06/10 06:46:21;;;;;;;2.83;1.80;;;17.90;53.20;;;18.38;57.98;101658.59;5025996;28;20498;-76
2022/06/10 06:48:51;;;;;;;10.23;2.07;;;18.10;56.20;;;18.50;57.56;101658.63;5017100;28;20946;-74
2022/06/10 06:51:19;;;;;;;3.10;1.80;;;18.30;54.00;;;18.71;57.33;101668.22;5024694;28;20527;-74
2022/06/10 06:53:48;;;;;;;3.60;1.83;;;18.40;51.40;;;18.55;56.72;101665.09;5028940;28;20521;-73
2022/06/10 06:56:17;;;;;;;1.43;1.33;;;18.40;45.50;;;18.64;55.87;101665.56;5025677;28;20450;-75
2022/06/10 06:58:46;;;;;;;1.63;1.50;;;18.50;41.80;;;18.48;55.83;101666.25;5024602;28;20421;-76
2022/06/10 07:01:17;;;;;;;2.57;1.83;;;18.40;39.80;;;18.80;55.71;101664.88;5016856;28;20519;-75
2022/06/10 07:03:46;;;;;;;2.00;1.27;;;18.60;41.20;;;18.85;55.37;101666.91;5025130;28;20477;-75
2022/06/10 07:06:15;;;;;;;5.97;2.07;;;18.70;38.30;;;18.80;55.23;101669.53;5018738;28;20526;-75
2022/06/10 07:08:43;;;;;;;3.83;1.70;;;18.70;36.40;;;19.00;54.84;101672.75;5019406;28;20862;-75
2022/06/10 07:11:12;;;;;;;3.50;1.83;;;18.80;35.20;;;19.19;54.26;101673.44;5029069;28;21011;-75
2022/06/10 07:13:41;;;;;;;3.53;1.50;;;19.00;33.50;;;19.32;53.38;101665.78;5031188;28;20534;-74
2022/06/10 07:16:10;;;;;;;2.20;1.57;;;19.10;30.40;;;19.41;53.15;101675.31;5022662;28;20934;-74
2022/06/10 07:18:41;;;;;;;2.53;1.67;;;19.20;28.90;;;19.36;52.48;101669.75;5017248;28;20965;-74
2022/06/10 07:21:10;;;;;;;3.00;1.80;;;19.20;26.70;;;19.43;52.05;101673.19;5024366;28;20439;-74
2022/06/10 07:23:38;;;;;;;4.03;1.57;;;19.30;25.80;;;19.61;51.68;101668.63;5028702;28;20532;-75
2022/06/10 07:26:07;;;;;;;7.40;1.90;;;19.40;25.30;;;19.56;51.41;101666.59;5025401;28;20881;-73
2022/06/10 07:28:36;;;;;;;3.43;1.80;;;19.40;24.00;;;19.54;51.63;101668.78;5024138;28;20410;-73
2022/06/10 07:31:05;;;;;;;2.70;1.70;;;19.40;23.80;;;19.55;51.89;101667.69;5024963;28;20443;-75
2022/06/10 07:33:35;;;;;;;3.53;1.87;;;19.40;24.30;;;19.75;51.66;101676.31;5023144;28;20419;-74
2022/06/10 07:36:07;;;;;;;3.50;1.67;;;19.50;24.30;;;19.84;50.92;101679.53;5026502;28;20440;-74
2022/06/10 07:38:36;;;;;;;4.83;1.70;;;19.60;22.60;;;19.53;50.62;101673.44;5024990;28;20422;-76
2022/06/10 07:43:52;;;;;;;2.40;1.20;;;19.60;22.10;;;19.61;50.12;101679.59;5026033;28;20454;-74
2022/06/10 07:46:23;;;;;;;3.00;1.80;;;19.60;19.50;;;19.64;49.85;101687.38;5024631;28;20466;-74
2022/06/10 07:48:53;;;;;;;2.73;1.80;;;19.50;19.00;;;19.61;50.12;101687.84;5029753;28;20444;-75
2022/06/10 07:51:23;;;;;;;5.33;2.17;;;19.50;19.10;;;19.84;49.45;101685.03;5027927;28;20466;-74
2022/06/10 07:53:52;;;;;;;3.80;1.50;;;19.60;18.80;;;19.53;49.39;101687.16;5030437;28;20773;-75
2022/06/10 07:56:22;;;;;;;2.90;1.67;;;19.50;17.20;;;19.63;48.81;101691.19;5019780;28;20971;-74
2022/06/10 07:58:53;;;;;;;6.67;1.40;;;19.50;16.20;;;19.45;48.57;101690.28;5026451;28;20437;-74
2022/06/10 08:01:22;;;;;;;4.20;1.60;;;19.50;15.10;;;19.89;48.45;101698.88;5039376;28;20853;-75
2022/06/10 08:03:52;;;;;;;3.20;1.40;;;19.70;16.30;;;19.82;48.79;101695.41;5017375;28;20423;-73
2022/06/10 08:06:27;;;;;;;2.67;1.43;;;19.70;16.00;;;19.80;47.54;101700.34;5022816;28;20443;-75
2022/06/10 08:08:57;;;;;;;3.03;1.20;;;19.70;13.70;;;19.55;47.65;101703.41;5026809;28;20855;-74
2022/06/10 08:11:25;;;;;;;2.83;1.40;;;19.50;13.00;;;19.89;47.76;101688.72;5018629;28;20982;-74
2022/06/10 08:13:55;;;;;;;4.83;1.10;;;19.70;13.60;;;19.77;47.09;101693.41;5022054;28;20448;-75
2022/06/10 08:16:25;;;;;;;3.50;1.30;;;19.70;12.10;;;20.24;47.35;101691.28;5024222;28;20507;-74
2022/06/10 08:18:54;;;;;;;2.77;1.33;;;20.00;13.00;;;20.08;46.35;101691.28;5023665;28;20441;-74
2022/06/10 08:24:11;;;;;;;1.97;1.43;;;19.80;11.00;;;19.91;46.71;101688.47;5026017;28;20430;-75
2022/06/10 08:26:40;;;;;;;5.60;1.53;;;19.80;11.30;;;19.66;47.24;101687.94;5020691;28;20438;-75
2022/06/10 08:29:10;;;;;;;2.90;1.50;;;19.70;10.80;;;19.70;47.56;101694.63;5036000;28;20480;-75
2022/06/10 08:31:39;;;;;;;4.07;2.53;;;19.60;11.80;;;19.78;48.08;101691.50;5023915;28;20531;-75
2022/06/10 08:34:08;;;;;;;2.60;1.60;;;19.60;12.50;;;19.76;48.21;101690.91;5040511;28;20424;-75
2022/06/10 08:36:38;;;;;;;3.47;1.57;;;19.60;12.70;;;20.06;47.58;101683.25;5025405;28;20510;-75
2022/06/10 08:39:07;;;;;;;2.90;1.70;;;19.80;12.60;;;20.21;47.24;101697.28;5021216;28;20467;-76
2022/06/10 08:41:55;;;;;;;3.43;1.50;;;20.00;11.70;;;20.49;47.15;101690.94;5025346;28;20539;-75
2022/06/10 08:44:35;;;;;;;4.43;1.80;;;20.30;11.80;;;19.96;47.82;101694.06;5018653;28;20473;-75
2022/06/10 08:47:37;;;;;;;2.47;1.40;;;20.00;11.20;;;20.15;47.97;101695.53;5018887;28;20419;-75
2022/06/10 08:50:45;;;;;;;4.57;2.70;;;20.00;12.00;;;20.21;47.68;101675.31;5020530;28;20446;-75
2022/06/10 08:53:49;;;;;;;6.83;1.97;;;20.00;12.40;;;20.10;48.20;101689.09;5015368;28;20830;-75
2022/06/10 08:56:28;;;;;;;3.33;1.73;;;19.90;12.80;;;20.20;48.13;101684.63;5021608;28;20446;-75
2022/06/10 08:59:05;;;;;;;3.10;1.67;;;20.00;13.10;;;20.10;48.43;101695.44;5021202;28;20522;-75
2022/06/10 09:01:48;;;;;;;3.43;1.87;;;20.00;13.20;;;20.68;47.65;101697.88;5022576;28;20439;-74
2022/06/10 09:04:33;;;;;;;4.33;1.90;;;20.20;13.30;;;21.17;47.00;101689.84;5021411;28;20811;-75
2022/06/10 09:07:18;;;;;;;4.40;1.80;;;20.80;12.40;;;21.19;46.38;101699.53;5022224;28;20406;-74
2022/06/10 09:09:49;;;;;;;4.33;1.63;;;20.90;11.20;;;21.13;46.65;101699.69;5022272;28;20438;-75
2022/06/10 09:12:29;;;;;;;2.40;1.50;;;20.90;11.20;;;21.63;44.41;101699.59;5013851;28;20628;-75
2022/06/10 09:15:04;;;;;;;2.57;1.47;;;21.30;10.10;;;21.49;44.22;101687.28;5024522;28;20459;-74
2022/06/10 09:17:41;;;;;;;3.57;1.80;;;21.30;7.60;;;21.45;43.72;101688.84;5026519;28;20475;-74
2022/06/10 09:20:22;;;;;;;3.57;1.73;;;21.30;6.20;;;21.98;43.79;101680.72;5017472;28;20993;-73
2022/06/10 09:22:58;;;;;;;5.40;2.07;;;21.50;7.50;;;22.02;42.94;101683.81;5021749;28;20442;-74
2022/06/10 09:25:35;;;;;;;4.70;1.33;;;21.80;5.60;;;21.87;42.77;101698.22;5023168;28;20454;-74
2022/06/10 09:28:06;;;;;;;3.47;1.20;;;21.80;5.10;;;21.58;42.11;101683.81;5021484;28;20419;-74
2022/06/10 09:30:46;;;;;;;1.40;1.00;;;21.60;3.10;;;21.65;41.97;101689.13;5022680;28;20437;-74
2022/06/10 09:33:27;;;;;;;1.70;1.37;;;21.60;3.10;;;21.91;41.93;101684.75;5022048;28;20441;-75
2022/06/10 09:36:08;;;;;;;1.83;1.20;;;21.70;3.30;;;21.52;42.22;101693.09;5021137;28;20526;-75
2022/06/10 09:38:48;;;;;;;2.70;1.37;;;21.50;2.80;;;21.62;40.98;101698.75;5022159;28;20920;-74
2022/06/10 09:41:34;;;;;;;6.93;1.43;;;21.50;1.20;;;21.63;40.83;101683.06;5020145;28;20643;-73
2022/06/10 09:44:20;;;;;;;2.87;1.40;;;21.40;1.00;;;21.40;40.87;101705.31;5018160;28;20411;-75
2022/06/10 09:47:14;;;;;;;2.50;1.50;;;21.40;1.00;;;21.18;39.93;101692.38;5019797;28;20444;-75
2022/06/10 09:50:13;;;;;;;3.03;1.40;;;21.20;1.00;;;21.31;40.90;101688.41;5021189;28;20515;-74
2022/06/10 09:53:00;;;;;;;2.27;0.97;;;21.20;1.00;;;21.63;41.78;101694.06;5023752;28;20867;-75
2022/06/10 09:55:55;;;;;;;7.80;1.63;;;21.40;1.40;;;21.84;41.61;101684.13;5027816;28;20510;-74
2022/06/10 09:58:56;;;;;;;2.23;1.43;;;21.60;1.90;;;21.81;42.49;101685.47;5021158;28;20548;-74
2022/06/10 10:01:39;;;;;;;4.53;1.40;;;21.60;2.10;;;21.89;42.32;101681.41;5022435;28;20454;-75
2022/06/10 10:05:01;;;;;;;5.00;1.20;;;21.70;2.40;;;21.52;42.86;101686.75;5023971;28;20465;-75
2022/06/10 10:07:44;;;;;;;4.27;1.73;;;21.40;2.10;;;21.50;43.90;101694.44;5001131;28;20460;-75
2022/06/10 10:10:26;;;;;;;1.80;1.47;;;21.40;3.50;;;21.60;43.26;101683.56;5021892;28;20478;-75
2022/06/10 10:13:38;;;;;;;2.20;1.30;;;21.40;3.00;;;22.19;42.47;101683.69;5020539;28;20502;-76
2022/06/10 10:16:26;;;;;;;3.53;1.77;;;21.80;3.00;;;22.28;41.38;101684.91;5022145;28;20837;-75
2022/06/10 10:19:22;;;;;;;3.80;1.20;;;22.10;1.50;;;22.03;41.91;101677.19;5022898;28;20454;-75
2022/06/10 10:22:06;;;;;;;2.60;1.40;;;21.90;1.10;;;22.35;41.89;101680.00;5019470;28;20529;-74
2022/06/10 10:24:43;;;;;;;3.43;1.50;;;22.10;1.70;;;22.94;40.64;101675.28;5023190;28;20429;-77
2022/06/10 10:27:21;;;;;;;1.70;1.27;;;22.50;1.00;;;22.90;40.56;101683.25;5028860;28;20414;-75
2022/06/10 10:29:58;;;;;;;2.37;1.33;;;22.70;1.00;;;22.57;39.65;101678.00;5023345;28;20422;-76
2022/06/10 10:32:37;;;;;;;8.60;2.03;;;22.50;1.00;;;22.59;40.84;101686.03;5025624;28;20525;-74
2022/06/10 10:35:19;;;;;;;2.70;1.20;;;22.40;1.00;;;23.15;38.82;101684.53;5020559;28;20479;-75
2022/06/10 10:37:57;;;;;;;2.73;1.40;;;22.80;1.00;;;22.46;40.20;101679.03;5031315;28;20503;-74
2022/06/10 10:40:36;;;;;;;1.93;1.00;;;22.50;1.00;;;22.71;39.64;101673.72;5032402;28;20419;-73
2022/06/10 10:43:14;;;;;;;3.23;1.40;;;22.50;1.00;;;23.04;39.44;101678.13;5027760;28;20449;-75
2022/06/10 10:45:59;;;;;;;1.60;1.37;;;22.80;1.00;;;23.04;39.05;101682.81;5032099;28;20425;-73
2022/06/10 10:48:35;;;;;;;7.03;1.80;;;22.80;1.00;;;22.80;39.50;101683.19;5036799;28;20451;-73
2022/06/10 10:51:20;;;;;;;2.80;1.23;;;22.70;1.00;;;22.85;38.52;101663.91;5017850;28;20435;-73
2022/06/10 10:54:20;;;;;;;4.30;1.60;;;22.70;1.00;;;22.59;38.35;101669.47;5020434;28;20982;-73
2022/06/10 10:56:51;;;;;;;4.03;1.33;;;22.60;1.00;;;22.36;37.63;101670.66;5023085;28;20475;-73
2022/06/10 10:59:33;;;;;;;2.53;1.30;;;22.40;1.00;;;22.45;37.75;101674.59;5025596;28;20441;-75
2022/06/10 11:02:24;;;;;;;6.33;1.83;;;22.30;1.00;;;22.51;37.77;101681.81;5023987;28;20427;-74